Latest Weather Observations for Richmond

IDN60901

Issued at 10:31 am EDT Thursday 9 February 2023 (issued every 10 minutes, with the page automatically refreshed every 10 minutes)

About weather observations | Map of Sydney area stations | Latest observations for Sydney area | Other Formats
Station Details ID: 067105 Name: RICHMOND RAAF Lat: -33.60 Lon: 150.78 Height: 19.0 m
Data from the previous 72 hours. | See also: Recent months at Richmond
Date/Time
EDT
Temp
°C
App
Temp
°C
Dew
Point
°C
Rel
Hum
%
Delta-T
°C
Wind Press
QNH
hPa
Press
MSL
hPa
Rain since
9am
mm
Dir  Spd
km/h
Gust
km/h
Spd
kts
Gust
kts
09/10:30am 22.1 24.5 20.0 88 1.3 W 7 11 4 6 1013.4 1013.3 0.0
09/10:00am 21.9 24.8 20.7 93 0.8 ENE 6 7 3 4 1013.1 1013.0 0.0
09/09:30am 21.7 23.6 21.4 98 0.2 ENE 13 19 7 10 1012.2 1012.1 0.0
09/09:00am 21.2 24.1 21.0 99 0.1 S 7 9 4 5 1012.9 1012.8 0.0
09/08:30am 20.9 22.9 20.7 99 0.1 SSW 11 15 6 8 1013.3 1013.2 0.0
09/08:00am 20.6 22.8 20.4 99 0.1 SSE 9 13 5 7 1012.9 1012.8 0.0
09/07:30am 20.1 23.8 19.9 99 0.1 CALM 0 0 0 0 1012.6 1012.5 0.0
09/07:00am 19.8 22.2 19.6 99 0.1 SSW 6 9 3 5 1012.8 1012.7 0.0
09/06:30am 19.5 21.6 19.3 99 0.1 SW 7 9 4 5 1012.8 1012.7 0.0
09/06:00am 19.6 21.7 19.4 99 0.1 SSW 7 9 4 5 1012.7 1012.6 0.0
09/05:30am 19.7 23.2 19.5 99 0.1 CALM 0 0 0 0 1012.3 1012.2 0.0
09/05:00am 19.7 23.2 19.5 99 0.1 CALM 0 0 0 0 1012.2 1012.1 0.0
09/04:30am 20.2 23.9 20.0 99 0.1 CALM 0 0 0 0 1012.2 1012.1 0.0
09/04:00am 20.7 24.7 20.5 99 0.1 CALM 0 0 0 0 1012.3 1012.2 0.0
09/03:30am 20.7 24.6 20.4 98 0.2 CALM 0 0 0 0 1012.7 1012.6 0.0
09/03:00am 20.4 24.2 20.2 99 0.1 CALM 0 0 0 0 1013.1 1013.0 0.0
09/02:30am 20.6 24.5 20.3 98 0.2 CALM 0 0 0 0 1013.3 1013.2 0.0
09/02:00am 21.0 23.7 20.3 96 0.5 SSW 6 7 3 4 1013.6 1013.5 0.0
09/01:30am 21.0 23.7 20.3 96 0.5 SW 6 7 3 4 1013.8 1013.7 0.0
09/01:00am 21.2 23.9 20.7 97 0.3 SW 7 9 4 5 1014.0 1013.9 0.0
09/12:30am 21.2 25.0 21.0 99 0.1 WNW 2 7 1 4 1014.3 1014.2 0.0
09/12:00am 20.8 24.8 20.5 98 0.2 CALM 0 0 0 0 1014.4 1014.3 0.0
 
Date/Time
EDT
Temp
°C
App
Temp
°C
Dew
Point
°C
Rel
Hum
%
Delta-T
°C
Wind Press
QNH
hPa
Press
MSL
hPa
Rain since
9am
mm
Dir  Spd
km/h
Gust
km/h
Spd
kts
Gust
kts
08/11:30pm 21.1 24.9 20.1 94 0.6 CALM 0 0 0 0 1014.5 1014.4 0.0
08/11:00pm 21.2 25.0 20.2 94 0.6 CALM 0 0 0 0 1014.5 1014.4 0.0
08/10:30pm 22.0 24.5 20.3 90 1.1 NE 7 9 4 5 1014.6 1014.5 0.0
08/10:00pm 22.2 24.0 20.3 89 1.2 ESE 11 13 6 7 1014.6 1014.5 0.0
08/09:30pm 22.3 23.6 20.2 88 1.4 ESE 13 19 7 10 1014.3 1014.2 0.0
08/09:00pm 22.6 23.4 19.8 84 1.8 ESE 15 19 8 10 1013.9 1013.8 0.0
08/08:30pm 23.2 24.0 19.8 81 2.2 E 15 22 8 12 1013.8 1013.7 0.0
08/08:00pm 23.5 24.1 19.4 78 2.6 ESE 15 22 8 12 1013.7 1013.6 0.0
08/07:30pm 24.0 24.0 18.9 73 3.2 E 17 24 9 13 1013.6 1013.5 0.0
08/07:00pm 24.6 23.4 18.5 69 3.9 ESE 22 30 12 16 1013.1 1013.0 0.0
08/06:30pm 25.0 24.2 18.4 66 4.2 E 20 28 11 15 1012.8 1012.7 0.0
08/06:00pm 25.3 23.0 17.7 62 4.8 E 26 35 14 19 1012.3 1012.2 0.0
08/05:30pm 25.6 24.0 18.3 64 4.6 ESE 24 30 13 16 1012.3 1012.2 0.0
08/05:00pm 25.6 25.1 19.0 67 4.2 E 20 28 11 15 1012.3 1012.2 0.0
08/04:30pm 24.9 24.0 19.1 70 3.7 E 22 30 12 16 1012.5 1012.4 0.0
08/04:00pm 26.3 25.7 18.4 61 5.0 E 19 30 10 16 1012.5 1012.4 0.0
08/03:30pm 26.7 26.2 18.6 61 5.2 E 19 22 10 12 1012.7 1012.6 0.0
08/03:00pm 26.9 26.0 18.2 59 5.5 SE 20 28 11 15 1012.7 1012.6 0.0
08/02:30pm 27.3 26.9 18.9 60 5.4 SE 19 24 10 13 1012.9 1012.8 0.0
08/02:00pm 27.1 27.1 18.1 58 5.7 ESE 15 20 8 11 1013.2 1013.1 0.0
08/01:30pm 27.0 26.7 18.3 59 5.5 ESE 17 24 9 13 1013.5 1013.4 0.0
08/01:00pm 27.2 27.4 17.7 56 6.0 ENE 13 17 7 9 1013.8 1013.7 0.0
08/12:30pm 27.9 29.8 18.9 58 5.8 ESE 7 13 4 7 1014.1 1014.0 0.0
08/12:00pm 26.1 27.3 18.2 61 5.0 NW 9 13 5 7 1014.5 1014.4 0.0
08/11:30am 26.7 27.6 18.3 60 5.3 E 11 17 6 9 1015.0 1014.9 0.0
08/11:00am 25.9 27.9 19.1 66 4.4 NNW 7 13 4 7 1015.2 1015.1 0.0
08/10:30am 25.4 27.6 19.1 68 4.0 NE 6 9 3 5 1015.4 1015.3 0.0
08/10:00am 25.0 28.1 19.4 71 3.6 NNE 2 7 1 4 1015.5 1015.4 0.0
08/09:30am 24.1 27.2 20.2 79 2.5 WSW 4 7 2 4 1015.6 1015.5 0.0
08/09:00am 22.7 25.1 20.0 85 1.7 S 7 11 4 6 1015.7 1015.6 2.4
08/08:30am 21.9 26.1 20.9 94 0.7 CALM 0 0 0 0 1015.8 1015.7 2.4
08/08:00am 20.6 23.4 20.4 99 0.1 SSW 6 7 3 4 1015.6 1015.5 2.4
08/07:30am 20.3 24.1 20.1 99 0.1 CALM 0 0 0 0 1015.4 1015.3 2.4
08/07:00am 19.7 23.2 19.5 99 0.1 CALM 0 0 0 0 1015.2 1015.1 2.4
08/06:30am 19.5 22.9 19.3 99 0.1 CALM 0 0 0 0 1014.9 1014.8 2.4
08/06:00am 19.3 22.6 19.1 99 0.1 CALM 0 0 0 0 1014.7 1014.6 2.4
08/05:30am 19.3 22.6 19.1 99 0.1 CALM 0 0 0 0 1014.6 1014.5 2.4
08/05:00am 19.3 22.6 19.1 99 0.1 CALM 0 0 0 0 1014.3 1014.2 2.4
08/04:30am 19.1 22.3 18.9 99 0.1 CALM 0 0 0 0 1014.2 1014.1 2.4
08/04:00am 19.1 22.3 18.9 99 0.1 CALM 0 0 0 0 1014.4 1014.3 2.4
08/03:30am 19.4 22.7 19.2 99 0.1 CALM 0 0 0 0 1014.5 1014.4 2.4
08/03:00am 19.6 23.0 19.4 99 0.1 CALM 0 0 0 0 1014.5 1014.4 2.4
08/02:30am 19.7 23.2 19.5 99 0.1 CALM 0 0 0 0 1014.7 1014.6 2.4
08/02:00am 20.0 23.6 19.8 99 0.1 CALM 0 0 0 0 1014.9 1014.8 2.4
08/01:30am 20.0 23.6 19.7 98 0.2 CALM 0 0 0 0 1015.0 1014.9 2.4
08/01:00am 20.5 24.1 19.8 96 0.4 CALM 0 0 0 0 1015.3 1015.2 2.4
08/12:30am 20.7 24.2 19.5 93 0.8 CALM 0 0 0 0 1015.5 1015.4 2.4
08/12:00am 21.1 24.8 19.9 93 0.8 CALM 0 0 0 0 1015.6 1015.5 2.4
 
Date/Time
EDT
Temp
°C
App
Temp
°C
Dew
Point
°C
Rel
Hum
%
Delta-T
°C
Wind Press
QNH
hPa
Press
MSL
hPa
Rain since
9am
mm
Dir  Spd
km/h
Gust
km/h
Spd
kts
Gust
kts
07/11:30pm 21.9 25.2 20.0 89 1.2 E 2 6 1 3 1015.6 1015.5 2.4
07/11:00pm 22.3 25.9 19.8 86 1.6 CALM 0 0 0 0 1015.9 1015.8 2.4
07/10:30pm 22.8 25.1 19.4 81 2.2 E 6 7 3 4 1016.0 1015.9 2.4
07/10:00pm 22.7 24.7 19.1 80 2.3 E 7 11 4 6 1015.7 1015.6 2.4
07/09:30pm 23.1 24.7 19.1 78 2.5 E 9 15 5 8 1015.6 1015.5 2.4
07/09:00pm 23.3 23.9 19.5 79 2.4 ESE 15 19 8 10 1015.5 1015.4 2.4
07/08:30pm 23.5 23.0 19.2 77 2.7 ESE 20 28 11 15 1015.2 1015.1 2.4
07/08:00pm 23.2 24.7 19.8 81 2.2 ENE 11 17 6 9 1015.0 1014.9 2.4
07/07:30pm 23.3 24.6 20.1 82 2.1 E 13 17 7 9 1014.6 1014.5 2.4
07/07:00pm 23.8 23.9 19.1 75 3.0 E 17 20 9 11 1014.2 1014.1 2.2
07/06:30pm 24.6 25.7 19.7 74 3.2 ENE 13 17 7 9 1013.6 1013.5 1.8
07/06:00pm 24.8 24.5 19.2 71 3.6 E 19 24 10 13 1013.3 1013.2 1.8
07/05:30pm 24.0 24.8 19.9 78 2.6 ESE 15 24 8 13 1012.9 1012.8 1.8
07/05:00pm 25.2 23.1 20.5 75 3.1 ESE 32 41 17 22 1012.5 1012.4 0.2
07/04:30pm 28.5 27.0 18.6 55 6.4 E 24 33 13 18 1012.2 1012.1 0.0
07/04:00pm 28.8 28.9 19.1 55 6.3 E 17 22 9 12 1012.5 1012.4 0.0
07/03:30pm 30.2 30.4 20.2 55 6.6 ENE 19 24 10 13 1012.7 1012.6 0.0
07/03:00pm 29.8 30.1 17.9 48 7.6 ESE 13 22 7 12 1012.8 1012.7 0.0
07/02:30pm 29.6 29.9 18.7 52 7.0 E 15 20 8 11 1013.3 1013.2 0.0
07/02:00pm 29.1 29.5 19.1 54 6.5 ENE 15 22 8 12 1013.5 1013.4 0.0
07/01:30pm 29.6 31.5 19.0 53 6.9 ENE 7 17 4 9 1013.9 1013.8 0.0
07/01:00pm 28.9 31.1 19.5 57 6.1 E 7 13 4 7 1014.3 1014.2 0.0
07/12:30pm 29.0 32.1 21.0 62 5.3 NNE 6 11 3 6 1014.7 1014.6 0.0
07/12:00pm 27.8 30.1 20.6 65 4.7 NNW 9 15 5 8 1015.1 1015.0 0.0
07/11:30am 27.1 28.4 19.2 62 5.1 ENE 11 17 6 9 1015.6 1015.5 0.0
07/11:00am 26.8 29.6 20.4 68 4.2 NNE 6 17 3 9 1016.0 1015.9 0.0
07/10:30am 25.3 27.8 19.9 72 3.5 NE 6 11 3 6 1016.1 1016.0 0.0
07/10:00am 25.3 27.8 20.3 74 3.3 NE 7 13 4 7 1016.1 1016.0 0.0
07/09:30am 25.2 28.5 20.7 76 2.9 N 4 7 2 4 1016.1 1016.0 0.0
07/09:00am 24.0 28.1 20.7 82 2.2 CALM 0 0 0 0 1016.2 1016.1 0.0
07/08:30am 23.2 27.5 21.1 88 1.4 CALM 0 0 0 0 1016.3 1016.2 0.0
07/08:00am 22.1 26.6 21.6 97 0.3 CALM 0 0 0 0 1016.1 1016.0 0.0
07/07:30am 21.0 25.1 20.8 99 0.1 CALM 0 0 0 0 1015.9 1015.8 0.0
07/07:00am 20.0 23.6 19.8 99 0.1 CALM 0 0 0 0 1015.7 1015.6 0.0
07/06:30am 19.6 23.0 19.4 99 0.1 CALM 0 6 0 3 1015.5 1015.4 0.0
07/06:00am 20.1 23.8 19.9 99 0.1 CALM 0 0 0 0 1015.2 1015.1 0.0
07/05:30am 20.4 24.2 20.2 99 0.1 CALM 0 0 0 0 1015.1 1015.0 0.0
07/05:00am 20.4 24.2 20.1 98 0.2 CALM 0 0 0 0 1015.1 1015.0 0.0
07/04:30am 20.6 24.3 19.9 96 0.4 CALM 0 0 0 0 1015.0 1014.9 0.0
07/04:00am 21.8 24.6 20.4 92 0.9 SE 6 7 3 4 1014.9 1014.8 0.0
07/03:30am 22.0 24.7 20.3 90 1.1 SE 6 7 3 4 1014.9 1014.8 0.0
07/03:00am 22.6 25.4 20.5 88 1.4 SSE 6 7 3 4 1015.0 1014.9 0.0
07/02:30am 22.8 25.1 20.7 88 1.4 ESE 9 11 5 6 1015.2 1015.1 0.0
07/02:00am 22.9 25.2 20.6 87 1.5 SE 9 11 5 6 1015.4 1015.3 0.0
07/01:30am 23.1 25.4 20.6 86 1.6 SSE 9 11 5 6 1015.6 1015.5 0.0
07/01:00am 23.4 25.6 20.5 84 1.9 SSE 9 11 5 6 1016.0 1015.9 0.0
07/12:30am 23.7 26.4 20.6 83 2.0 ESE 7 9 4 5 1016.1 1016.0 0.0
07/12:00am 23.6 26.3 20.3 82 2.1 NE 6 7 3 4 1016.2 1016.1 0.0
 
Date/Time
EDT
Temp
°C
App
Temp
°C
Dew
Point
°C
Rel
Hum
%
Delta-T
°C
Wind Press
QNH
hPa
Press
MSL
hPa
Rain since
9am
mm
Dir  Spd
km/h
Gust
km/h
Spd
kts
Gust
kts
06/11:30pm 23.6 26.1 20.3 82 2.1 ESE 7 13 4 7 1016.3 1016.2 0.0
06/11:00pm 23.7 27.6 20.4 82 2.1 CALM 0 6 0 3 1016.4 1016.3 0.0
06/10:30pm 23.6 26.7 20.3 82 2.1 ENE 4 7 2 4 1016.4 1016.3 0.0
06/10:00pm 23.7 25.4 20.2 81 2.3 ENE 11 15 6 8 1016.3 1016.2 0.0
06/09:30pm 23.7 25.4 20.2 81 2.3 ENE 11 17 6 9 1015.9 1015.8 0.0
06/09:00pm 23.9 25.7 20.4 81 2.3 ENE 11 17 6 9 1015.8 1015.7 0.0
06/08:30pm 24.0 24.9 20.1 79 2.5 E 15 19 8 10 1015.5 1015.4 0.0
06/08:00pm 24.6 25.5 20.1 76 2.9 E 15 22 8 12 1015.0 1014.9 0.0
06/07:30pm 25.4 25.7 20.4 74 3.3 E 19 26 10 14 1014.5 1014.4 0.0
06/07:00pm 26.3 26.6 20.4 70 3.9 E 19 24 10 13 1014.2 1014.1 0.0
06/06:30pm 27.0 26.8 20.6 68 4.2 ENE 22 32 12 17 1013.4 1013.3 0.0
06/06:00pm 27.9 27.2 20.2 63 5.1 E 24 32 13 17 1013.3 1013.2 0.0
06/05:30pm 28.8 28.3 20.8 62 5.3 E 24 33 13 18 1013.2 1013.1 0.0
06/05:00pm 29.1 27.7 20.5 59 5.7 ENE 28 32 15 17 1013.1 1013.0 0.0
06/04:30pm 30.6 31.2 21.4 58 6.2 E 20 32 11 17 1013.3 1013.2 0.0
06/04:00pm 30.8 31.7 17.5 45 8.5 E 9 17 5 9 1013.3 1013.2 0.0
06/03:30pm 30.5 32.0 17.6 46 8.2 ENE 6 13 3 7 1013.7 1013.6 0.0
06/03:00pm 30.5 32.3 19.5 51 7.2 ENE 9 19 5 10 1014.3 1014.2 0.0
06/02:30pm 29.7 30.1 18.2 50 7.4 NE 13 20 7 11 1014.6 1014.5 0.0
06/02:00pm 29.5 29.3 18.6 52 7.0 ENE 17 26 9 14 1015.0 1014.9 0.0
06/01:30pm 28.1 27.9 17.6 53 6.6 ENE 15 20 8 11 1015.4 1015.3 0.0
06/01:00pm 27.7 28.1 18.1 56 6.1 NNE 13 26 7 14 1016.0 1015.9 0.0
06/12:30pm 27.2 28.4 18.2 58 5.7 NNE 9 17 5 9 1016.6 1016.5 0.0
06/12:00pm 26.5 27.2 18.9 63 4.9 NNE 13 19 7 10 1017.0 1016.9 0.0
06/11:30am 26.3 26.7 18.9 63 4.7 NNE 15 19 8 10 1017.5 1017.4 0.0
06/11:00am 25.5 25.3 18.4 65 4.5 NE 17 24 9 13 1017.9 1017.8 0.0

Latest Capital City Observations: Canberra | Sydney | Melbourne | Brisbane | Adelaide | Perth | Hobart | Darwin

Other formats

Comma delimited format used in spreadsheet applications
http://www.bom.gov.au/fwo/IDN60901/IDN60901.95753.axf

JavaScript Object Notation format (JSON) in row-major order
http://www.bom.gov.au/fwo/IDN60901/IDN60901.95753.json

Data quality

Most of these data are generated automatically and are frequently updated. Quality checks on data are not normally performed. It is possible for incorrect values to appear. Refer to information at About Latest Weather Observations and please check the disclaimer before using these data.